EST,Max TemperatureF,Mean TemperatureF,Min TemperatureF,Max Dew PointF,MeanDew PointF,Min DewpointF,Max Humidity, Mean Humidity, Min Humidity, Max Sea Level PressureIn, Mean Sea Level PressureIn, Min Sea Level PressureIn, Max VisibilityMiles, Mean VisibilityMiles, Min VisibilityMiles, Max Wind SpeedMPH, Mean Wind SpeedMPH, Max Gust SpeedMPH,PrecipitationIn, CloudCover, Events, WindDirDegrees
2014-1-1,48,39,29,27,24,21,78,58,37,30.32,30.21,30.02,10,10,10,17,8,21,0.00,0,,189
2014-1-2,39,27,15,35,24,9,92,73,54,30.28,29.95,29.80,10,5,1,25,10,34,0.22,8,Rain-Snow,297
2014-1-3,20,13,5,8,5,0,83,67,51,30.55,30.43,30.30,10,10,5,20,6,25,T,1,Snow,319
2014-1-4,44,31,17,26,16,9,74,55,36,30.27,30.19,30.09,10,10,10,24,11,33,0.00,0,,178
2014-1-5,56,42,28,48,37,25,93,76,59,30.07,29.74,29.49,10,8,1,29,14,39,0.47,7,Rain-Snow,206
2014-1-6,28,12,-4,21,-4,-13,85,71,56,30.49,30.25,29.85,10,9,4,29,17,36,T,6,Snow,274
2014-1-7,11,4,-4,1,-6,-13,72,68,63,30.58,30.49,30.43,10,10,2,16,9,21,T,3,Snow,218
2014-1-8,32,20,8,19,12,1,73,64,54,30.51,30.46,30.44,10,10,10,15,8,19,0.00,2,,184
2014-1-9,42,35,28,33,23,19,82,61,39,30.51,30.42,30.29,10,10,8,17,7,21,0.02,7,Rain-Snow,130
2014-1-10,55,47,38,49,43,36,93,85,77,30.27,30.10,29.76,10,9,5,24,11,30,T,7,,157
2014-1-11,56,45,33,51,42,30,96,78,59,29.88,29.68,29.56,10,9,2,28,14,38,0.74,7,Rain-Thunderstorm,239
2014-1-12,50,41,31,34,31,29,92,71,50,30.12,30.01,29.88,10,9,5,16,10,19,0.00,1,,205
2014-1-13,51,47,42,47,41,31,93,72,50,29.94,29.82,29.76,10,7,2,25,14,33,0.53,6,Rain,197
2014-1-14,51,43,35,45,35,29,100,71,41,29.96,29.87,29.79,10,10,7,23,10,30,0.06,4,Rain,253
2014-1-15,37,30,22,30,20,16,85,69,53,30.13,30.06,29.95,10,10,2,17,7,21,T,5,Snow,279
2014-1-16,36,27,18,30,21,14,89,68,47,30.09,29.92,29.79,10,8,1,21,11,27,0.01,6,Snow,197
2014-1-17,34,25,16,32,21,7,96,79,61,30.13,29.92,29.77,10,8,1,22,11,29,T,8,Snow,248
2014-1-18,36,25,13,20,14,6,80,64,47,30.11,30.00,29.81,10,10,9,22,11,26,T,6,,207
2014-1-19,38,34,30,30,25,21,82,67,52,30.04,29.92,29.80,10,10,10,21,14,28,T,5,,247
2014-1-20,52,43,34,29,26,23,75,58,41,29.92,29.86,29.81,10,10,10,22,11,29,0.00,0,,259
2014-1-21,35,19,3,30,17,-5,92,75,57,30.22,29.92,29.73,10,4,0,29,12,33,0.15,7,Fog-Snow,352
2014-1-22,19,7,-6,10,0,-10,91,74,56,30.23,30.17,30.10,10,10,10,14,6,18,T,5,,218
2014-1-23,19,11,2,14,1,-7,75,63,50,30.68,30.38,30.11,10,8,1,20,10,27,0.01,4,Snow,297
2014-1-24,24,10,-5,5,-1,-8,87,66,44,30.70,30.45,29.99,10,10,10,28,13,36,0.00,0,,206
2014-1-25,36,26,15,29,16,-1,92,63,34,29.99,29.74,29.60,10,6,0,31,18,43,0.10,6,Fog-Snow,241
2014-1-26,49,29,9,32,17,-3,62,51,39,29.98,29.76,29.63,10,10,10,26,12,32,0.00,4,,206
2014-1-27,47,28,8,32,7,-4,75,57,39,30.44,30.11,29.67,10,10,10,31,12,41,0.00,4,,315
2014-1-28,12,7,2,-3,-6,-11,75,57,38,30.49,30.43,30.38,10,10,10,14,6,17,0.00,2,,3
2014-1-29,24,12,0,1,-2,-7,75,55,35,30.44,30.39,30.35,10,10,10,13,6,17,0.00,0,,204
2014-1-30,38,24,10,8,3,-2,63,41,19,30.34,30.19,30.01,10,10,10,22,11,27,0.00,0,,177
2014-1-31,42,36,29,20,13,8,43,38,32,30.19,30.12,30.07,10,10,10,14,9,17,0.00,6,,178